CANCS88 MUBY-MWCR
Flight info
| Callsign | CANCS88 |
|---|---|
| Flight time | 1h 35m |
| Altitude | 8000 |
| Route | NIBEO |
| Aircraft | K100/L-SBDGRY/S |
Departure
| Time | 2026-04-26 14:39 |
|---|---|
| Airport | Carlos Manuel de Cespedes Airport (MUBY) |
Arrival
| Time | 2026-04-26 16:15 |
|---|---|
| Airport | Owen Roberts International Airport (MWCR) |
| Time | Latitude | Longitude | Altitude | Speed | Heading |
|---|---|---|---|---|---|
| 2026-04-26 14:21 | 20.39402 | -76.62270 | 186 ft | 0 kts | 251° |
| 2026-04-26 14:36 | 20.39410 | -76.62272 | 187 ft | 5 kts | 27° |
| 2026-04-26 14:36 | 20.39491 | -76.62264 | 188 ft | 18 kts | 338° |
| 2026-04-26 14:36 | 20.39561 | -76.62377 | 186 ft | 26 kts | 257° |
| 2026-04-26 14:37 | 20.39491 | -76.62584 | 189 ft | 34 kts | 249° |
| 2026-04-26 14:37 | 20.39394 | -76.62838 | 195 ft | 39 kts | 247° |
| 2026-04-26 14:37 | 20.39332 | -76.63029 | 187 ft | 8 kts | 226° |
| 2026-04-26 14:37 | 20.39324 | -76.62999 | 187 ft | 8 kts | 64° |
| 2026-04-26 14:38 | 20.39333 | -76.62976 | 190 ft | 0 kts | 67° |
| 2026-04-26 14:38 | 20.39420 | -76.62754 | 182 ft | 64 kts | 70° |
| 2026-04-26 14:38 | 20.39656 | -76.62156 | 230 ft | 106 kts | 63° |
| 2026-04-26 14:39 | 20.39972 | -76.61380 | 416 ft | 123 kts | 63° |
| 2026-04-26 14:39 | 20.40323 | -76.60495 | 587 ft | 136 kts | 67° |
| 2026-04-26 14:39 | 20.40872 | -76.59656 | 778 ft | 143 kts | 33° |
| 2026-04-26 14:39 | 20.41834 | -76.59407 | 994 ft | 148 kts | 354° |
| 2026-04-26 14:40 | 20.42795 | -76.59795 | 1149 ft | 153 kts | 326° |
| 2026-04-26 14:40 | 20.43522 | -76.60647 | 1259 ft | 157 kts | 298° |
| 2026-04-26 14:40 | 20.43762 | -76.61782 | 1346 ft | 162 kts | 266° |
| 2026-04-26 14:40 | 20.43409 | -76.62909 | 1421 ft | 163 kts | 242° |
| 2026-04-26 14:41 | 20.42872 | -76.63962 | 1601 ft | 160 kts | 239° |
| 2026-04-26 14:41 | 20.42292 | -76.64968 | 1733 ft | 162 kts | 239° |
| 2026-04-26 14:41 | 20.41719 | -76.66016 | 1851 ft | 162 kts | 239° |
| 2026-04-26 14:41 | 20.41104 | -76.67009 | 2037 ft | 161 kts | 233° |
| 2026-04-26 14:42 | 20.40399 | -76.67972 | 2072 ft | 167 kts | 232° |
| 2026-04-26 14:42 | 20.39659 | -76.68920 | 2292 ft | 163 kts | 230° |
| 2026-04-26 14:42 | 20.38965 | -76.69852 | 2523 ft | 159 kts | 231° |
| 2026-04-26 14:42 | 20.38250 | -76.70746 | 2684 ft | 160 kts | 233° |
| 2026-04-26 14:43 | 20.37709 | -76.71799 | 2809 ft | 164 kts | 252° |
| 2026-04-26 14:43 | 20.37444 | -76.73000 | 2925 ft | 169 kts | 259° |
| 2026-04-26 14:43 | 20.37221 | -76.74223 | 3048 ft | 169 kts | 258° |
| 2026-04-26 14:43 | 20.36986 | -76.75457 | 3180 ft | 171 kts | 258° |
| 2026-04-26 14:44 | 20.36754 | -76.76688 | 3289 ft | 171 kts | 258° |
| 2026-04-26 14:44 | 20.36518 | -76.77943 | 3417 ft | 171 kts | 258° |
| 2026-04-26 14:44 | 20.36283 | -76.79175 | 3530 ft | 171 kts | 258° |
| 2026-04-26 14:44 | 20.36050 | -76.80409 | 3659 ft | 170 kts | 258° |
| 2026-04-26 14:45 | 20.35822 | -76.81650 | 3776 ft | 170 kts | 258° |
| 2026-04-26 14:45 | 20.35667 | -76.82470 | 3862 ft | 171 kts | 258° |
| 2026-04-26 14:45 | 20.35342 | -76.84144 | 4020 ft | 173 kts | 258° |
| 2026-04-26 14:45 | 20.35107 | -76.85407 | 4139 ft | 175 kts | 258° |
| 2026-04-26 14:46 | 20.34867 | -76.86679 | 4271 ft | 175 kts | 258° |
| 2026-04-26 14:46 | 20.34626 | -76.87948 | 4395 ft | 174 kts | 258° |
| 2026-04-26 14:46 | 20.34387 | -76.89200 | 4510 ft | 174 kts | 259° |
| 2026-04-26 14:46 | 20.34152 | -76.90475 | 4638 ft | 175 kts | 258° |
| 2026-04-26 14:47 | 20.33902 | -76.91746 | 4766 ft | 176 kts | 259° |
| 2026-04-26 14:47 | 20.33663 | -76.93024 | 4886 ft | 176 kts | 258° |
| 2026-04-26 14:47 | 20.33423 | -76.94300 | 5001 ft | 175 kts | 258° |
| 2026-04-26 14:47 | 20.33182 | -76.95568 | 5119 ft | 175 kts | 259° |
| 2026-04-26 14:48 | 20.32942 | -76.96840 | 5243 ft | 175 kts | 258° |
| 2026-04-26 14:48 | 20.32700 | -76.98107 | 5368 ft | 175 kts | 258° |
| 2026-04-26 14:48 | 20.32458 | -76.99378 | 5485 ft | 174 kts | 259° |
| 2026-04-26 14:48 | 20.32217 | -77.00651 | 5614 ft | 175 kts | 259° |
| 2026-04-26 14:49 | 20.31973 | -77.01922 | 5734 ft | 174 kts | 258° |
| 2026-04-26 14:49 | 20.31731 | -77.03190 | 5853 ft | 174 kts | 259° |
| 2026-04-26 14:49 | 20.31492 | -77.04453 | 5974 ft | 174 kts | 259° |
| 2026-04-26 14:49 | 20.31255 | -77.05696 | 6097 ft | 173 kts | 259° |
| 2026-04-26 14:50 | 20.31016 | -77.06951 | 6220 ft | 173 kts | 259° |
| 2026-04-26 14:50 | 20.30777 | -77.08210 | 6347 ft | 173 kts | 259° |
| 2026-04-26 14:50 | 20.30538 | -77.09464 | 6464 ft | 172 kts | 259° |
| 2026-04-26 14:50 | 20.30301 | -77.10715 | 6581 ft | 173 kts | 259° |
| 2026-04-26 14:51 | 20.30061 | -77.11971 | 6698 ft | 173 kts | 259° |
| 2026-04-26 14:51 | 20.29820 | -77.13227 | 6807 ft | 172 kts | 259° |
| 2026-04-26 14:51 | 20.29583 | -77.14471 | 6929 ft | 171 kts | 259° |
| 2026-04-26 14:51 | 20.29344 | -77.15712 | 7051 ft | 172 kts | 258° |
| 2026-04-26 14:52 | 20.29105 | -77.16965 | 7171 ft | 174 kts | 258° |
| 2026-04-26 14:52 | 20.28864 | -77.18233 | 7289 ft | 175 kts | 259° |
| 2026-04-26 14:52 | 20.28623 | -77.19496 | 7409 ft | 173 kts | 259° |
| 2026-04-26 14:52 | 20.28381 | -77.20750 | 7527 ft | 172 kts | 259° |
| 2026-04-26 14:53 | 20.28142 | -77.22000 | 7647 ft | 172 kts | 259° |
| 2026-04-26 14:53 | 20.27905 | -77.23235 | 7767 ft | 172 kts | 259° |
| 2026-04-26 14:53 | 20.27666 | -77.24487 | 7887 ft | 173 kts | 259° |
| 2026-04-26 14:53 | 20.27426 | -77.25740 | 7984 ft | 174 kts | 259° |
| 2026-04-26 14:54 | 20.27182 | -77.27019 | 7988 ft | 178 kts | 259° |
| 2026-04-26 14:54 | 20.26933 | -77.28326 | 7982 ft | 181 kts | 259° |
| 2026-04-26 14:54 | 20.26680 | -77.29644 | 7984 ft | 182 kts | 259° |
| 2026-04-26 14:54 | 20.26426 | -77.30970 | 7983 ft | 183 kts | 259° |
| 2026-04-26 14:55 | 20.26171 | -77.32301 | 7984 ft | 183 kts | 259° |
| 2026-04-26 14:55 | 20.25915 | -77.33633 | 7984 ft | 184 kts | 259° |
| 2026-04-26 14:55 | 20.25659 | -77.34962 | 7984 ft | 182 kts | 259° |
| 2026-04-26 14:55 | 20.25405 | -77.36280 | 7986 ft | 182 kts | 258° |
| 2026-04-26 14:56 | 20.25150 | -77.37598 | 7981 ft | 180 kts | 258° |
| 2026-04-26 14:56 | 20.24899 | -77.38896 | 7981 ft | 178 kts | 258° |
| 2026-04-26 14:56 | 20.24649 | -77.40188 | 7980 ft | 178 kts | 258° |
| 2026-04-26 14:56 | 20.24398 | -77.41485 | 7981 ft | 180 kts | 258° |
| 2026-04-26 14:57 | 20.24148 | -77.42784 | 7988 ft | 183 kts | 258° |
| 2026-04-26 14:57 | 20.23892 | -77.44127 | 7986 ft | 187 kts | 259° |
| 2026-04-26 14:57 | 20.23633 | -77.45487 | 7989 ft | 188 kts | 259° |
| 2026-04-26 14:57 | 20.23369 | -77.46856 | 7989 ft | 189 kts | 258° |
| 2026-04-26 14:58 | 20.23103 | -77.48227 | 7992 ft | 190 kts | 259° |
| 2026-04-26 14:58 | 20.22837 | -77.49604 | 7991 ft | 190 kts | 259° |
| 2026-04-26 14:58 | 20.22572 | -77.50982 | 7995 ft | 190 kts | 259° |
| 2026-04-26 14:58 | 20.22305 | -77.52360 | 7990 ft | 190 kts | 259° |
| 2026-04-26 14:59 | 20.22039 | -77.53740 | 7992 ft | 190 kts | 258° |
| 2026-04-26 14:59 | 20.21772 | -77.55118 | 7989 ft | 190 kts | 259° |
| 2026-04-26 14:59 | 20.21505 | -77.56499 | 7994 ft | 190 kts | 259° |
| 2026-04-26 14:59 | 20.21325 | -77.57432 | 7990 ft | 190 kts | 259° |
| 2026-04-26 15:00 | 20.20970 | -77.59262 | 7992 ft | 190 kts | 258° |
| 2026-04-26 15:00 | 20.20702 | -77.60644 | 7990 ft | 190 kts | 258° |
| 2026-04-26 15:00 | 20.20435 | -77.62024 | 7992 ft | 190 kts | 259° |
| 2026-04-26 15:00 | 20.20166 | -77.63407 | 7992 ft | 191 kts | 258° |
| 2026-04-26 15:01 | 20.19900 | -77.64778 | 7993 ft | 191 kts | 258° |
| 2026-04-26 15:01 | 20.19632 | -77.66163 | 7990 ft | 191 kts | 258° |
| 2026-04-26 15:01 | 20.19363 | -77.67544 | 7993 ft | 191 kts | 258° |
| 2026-04-26 15:01 | 20.19093 | -77.68932 | 7993 ft | 191 kts | 258° |
| 2026-04-26 15:02 | 20.18825 | -77.70312 | 7992 ft | 191 kts | 258° |
| 2026-04-26 15:02 | 20.18556 | -77.71696 | 7989 ft | 191 kts | 259° |
| 2026-04-26 15:02 | 20.18288 | -77.73076 | 7993 ft | 191 kts | 258° |
| 2026-04-26 15:02 | 20.18022 | -77.74442 | 7992 ft | 191 kts | 258° |
| 2026-04-26 15:03 | 20.17752 | -77.75829 | 7992 ft | 191 kts | 258° |
| 2026-04-26 15:03 | 20.17482 | -77.77212 | 7988 ft | 190 kts | 258° |
| 2026-04-26 15:03 | 20.17214 | -77.78592 | 7990 ft | 191 kts | 259° |
| 2026-04-26 15:03 | 20.16944 | -77.79974 | 7988 ft | 191 kts | 259° |
| 2026-04-26 15:04 | 20.16675 | -77.81355 | 7988 ft | 191 kts | 259° |
| 2026-04-26 15:04 | 20.16405 | -77.82737 | 7993 ft | 191 kts | 258° |
| 2026-04-26 15:04 | 20.16135 | -77.84119 | 7992 ft | 191 kts | 258° |
| 2026-04-26 15:04 | 20.15865 | -77.85501 | 7994 ft | 191 kts | 258° |
| 2026-04-26 15:05 | 20.15595 | -77.86882 | 7992 ft | 191 kts | 258° |
| 2026-04-26 15:05 | 20.15508 | -77.87330 | 7990 ft | 191 kts | 258° |
| 2026-04-26 15:05 | 20.15055 | -77.89646 | 7992 ft | 191 kts | 258° |
| 2026-04-26 15:05 | 20.14785 | -77.91027 | 7994 ft | 191 kts | 258° |
| 2026-04-26 15:06 | 20.14517 | -77.92393 | 7992 ft | 191 kts | 258° |
| 2026-04-26 15:06 | 20.14246 | -77.93778 | 7995 ft | 191 kts | 258° |
| 2026-04-26 15:06 | 20.13975 | -77.95162 | 7994 ft | 191 kts | 258° |
| 2026-04-26 15:06 | 20.13703 | -77.96548 | 7992 ft | 191 kts | 258° |
| 2026-04-26 15:07 | 20.13159 | -77.99318 | 7993 ft | 191 kts | 258° |
| 2026-04-26 15:07 | 20.12887 | -78.00701 | 7995 ft | 191 kts | 258° |
| 2026-04-26 15:07 | 20.12619 | -78.02069 | 7991 ft | 191 kts | 258° |
| 2026-04-26 15:08 | 20.12347 | -78.03455 | 7995 ft | 191 kts | 258° |
| 2026-04-26 15:08 | 20.12074 | -78.04844 | 7994 ft | 191 kts | 258° |
| 2026-04-26 15:08 | 20.11802 | -78.06227 | 7994 ft | 191 kts | 258° |
| 2026-04-26 15:08 | 20.11530 | -78.07612 | 7993 ft | 191 kts | 258° |
| 2026-04-26 15:09 | 20.11257 | -78.08998 | 7994 ft | 191 kts | 258° |
| 2026-04-26 15:09 | 20.10984 | -78.10382 | 7991 ft | 191 kts | 258° |
| 2026-04-26 15:09 | 20.10712 | -78.11768 | 7992 ft | 191 kts | 258° |
| 2026-04-26 15:09 | 20.10442 | -78.13136 | 7992 ft | 191 kts | 258° |
| 2026-04-26 15:10 | 20.10169 | -78.14522 | 7991 ft | 191 kts | 258° |
| 2026-04-26 15:10 | 20.10077 | -78.14990 | 7992 ft | 191 kts | 258° |
| 2026-04-26 15:10 | 20.09621 | -78.17300 | 7989 ft | 191 kts | 258° |
| 2026-04-26 15:10 | 20.09348 | -78.18687 | 7989 ft | 191 kts | 258° |
| 2026-04-26 15:11 | 20.09073 | -78.20076 | 7995 ft | 191 kts | 258° |
| 2026-04-26 15:11 | 20.08799 | -78.21463 | 7991 ft | 192 kts | 258° |
| 2026-04-26 15:11 | 20.08618 | -78.22381 | 7989 ft | 192 kts | 258° |
| 2026-04-26 15:11 | 20.08344 | -78.23766 | 7990 ft | 192 kts | 258° |
| 2026-04-26 15:12 | 20.08070 | -78.25155 | 7991 ft | 192 kts | 258° |
| 2026-04-26 15:12 | 20.07706 | -78.26993 | 7995 ft | 192 kts | 258° |
| 2026-04-26 15:12 | 20.07521 | -78.27930 | 7993 ft | 192 kts | 258° |
| 2026-04-26 15:12 | 20.07250 | -78.29299 | 7993 ft | 191 kts | 258° |
| 2026-04-26 15:13 | 20.06975 | -78.30686 | 7991 ft | 191 kts | 258° |
| 2026-04-26 15:13 | 20.06699 | -78.32076 | 7992 ft | 192 kts | 258° |
| 2026-04-26 15:13 | 20.06425 | -78.33461 | 7994 ft | 192 kts | 258° |
| 2026-04-26 15:13 | 20.06150 | -78.34848 | 7993 ft | 192 kts | 258° |
| 2026-04-26 15:14 | 20.05875 | -78.36235 | 7993 ft | 192 kts | 258° |
| 2026-04-26 15:14 | 20.05599 | -78.37624 | 7988 ft | 192 kts | 258° |
| 2026-04-26 15:14 | 20.05322 | -78.39016 | 7992 ft | 192 kts | 258° |
| 2026-04-26 15:14 | 20.05049 | -78.40392 | 7989 ft | 192 kts | 258° |
| 2026-04-26 15:15 | 20.04773 | -78.41779 | 7991 ft | 192 kts | 258° |
| 2026-04-26 15:15 | 20.04497 | -78.43170 | 7990 ft | 192 kts | 258° |
| 2026-04-26 15:15 | 20.04220 | -78.44561 | 7992 ft | 192 kts | 258° |
| 2026-04-26 15:15 | 20.03944 | -78.45950 | 7993 ft | 192 kts | 258° |
| 2026-04-26 15:16 | 20.03666 | -78.47345 | 7988 ft | 192 kts | 258° |
| 2026-04-26 15:16 | 20.03389 | -78.48737 | 7993 ft | 192 kts | 258° |
| 2026-04-26 15:16 | 20.03114 | -78.50114 | 7991 ft | 192 kts | 258° |
| 2026-04-26 15:16 | 20.02837 | -78.51504 | 7991 ft | 192 kts | 258° |
| 2026-04-26 15:17 | 20.02560 | -78.52897 | 7991 ft | 192 kts | 258° |
| 2026-04-26 15:17 | 20.02372 | -78.53838 | 7992 ft | 192 kts | 258° |
| 2026-04-26 15:17 | 20.02003 | -78.55685 | 7992 ft | 193 kts | 258° |
| 2026-04-26 15:17 | 20.01725 | -78.57081 | 7991 ft | 193 kts | 258° |
| 2026-04-26 15:18 | 20.01446 | -78.58472 | 7991 ft | 193 kts | 258° |
| 2026-04-26 15:18 | 20.01168 | -78.59867 | 7991 ft | 193 kts | 258° |
| 2026-04-26 15:18 | 20.00889 | -78.61263 | 7992 ft | 193 kts | 258° |
| 2026-04-26 15:18 | 20.00610 | -78.62659 | 7992 ft | 193 kts | 258° |
| 2026-04-26 15:19 | 20.00331 | -78.64049 | 7993 ft | 193 kts | 258° |
| 2026-04-26 15:19 | 20.00007 | -78.65413 | 7991 ft | 192 kts | 254° |
| 2026-04-26 15:19 | 19.99652 | -78.66785 | 7991 ft | 193 kts | 256° |
| 2026-04-26 15:19 | 19.99309 | -78.68163 | 7991 ft | 193 kts | 256° |
| 2026-04-26 15:20 | 19.98961 | -78.69539 | 7991 ft | 193 kts | 255° |
| 2026-04-26 15:20 | 19.98611 | -78.70917 | 7989 ft | 193 kts | 255° |
| 2026-04-26 15:20 | 19.98260 | -78.72295 | 7989 ft | 193 kts | 255° |
| 2026-04-26 15:20 | 19.97909 | -78.73672 | 7988 ft | 193 kts | 255° |
| 2026-04-26 15:21 | 19.97559 | -78.75048 | 7989 ft | 193 kts | 255° |
| 2026-04-26 15:21 | 19.97208 | -78.76425 | 7985 ft | 193 kts | 255° |
| 2026-04-26 15:21 | 19.96857 | -78.77802 | 7988 ft | 193 kts | 255° |
| 2026-04-26 15:21 | 19.96506 | -78.79181 | 7986 ft | 193 kts | 255° |
| 2026-04-26 15:22 | 19.96159 | -78.80541 | 7986 ft | 193 kts | 255° |
| 2026-04-26 15:22 | 19.95808 | -78.81919 | 7988 ft | 193 kts | 255° |
| 2026-04-26 15:22 | 19.95455 | -78.83299 | 7986 ft | 193 kts | 255° |
| 2026-04-26 15:22 | 19.95103 | -78.84679 | 7987 ft | 193 kts | 255° |
| 2026-04-26 15:23 | 19.94751 | -78.86059 | 7989 ft | 193 kts | 255° |
| 2026-04-26 15:23 | 19.94398 | -78.87439 | 7987 ft | 193 kts | 255° |
| 2026-04-26 15:23 | 19.94045 | -78.88819 | 7988 ft | 193 kts | 255° |
| 2026-04-26 15:23 | 19.93693 | -78.90198 | 7987 ft | 193 kts | 255° |
| 2026-04-26 15:24 | 19.93339 | -78.91582 | 7987 ft | 194 kts | 255° |
| 2026-04-26 15:24 | 19.92990 | -78.92945 | 7989 ft | 194 kts | 255° |
| 2026-04-26 15:24 | 19.92637 | -78.94325 | 7990 ft | 194 kts | 255° |
| 2026-04-26 15:24 | 19.92283 | -78.95706 | 7990 ft | 194 kts | 255° |
| 2026-04-26 15:25 | 19.91930 | -78.97088 | 7991 ft | 194 kts | 255° |
| 2026-04-26 15:25 | 19.91691 | -78.98020 | 7987 ft | 194 kts | 255° |
| 2026-04-26 15:25 | 19.91222 | -78.99851 | 7988 ft | 194 kts | 255° |
| 2026-04-26 15:25 | 19.90868 | -79.01232 | 7985 ft | 194 kts | 255° |
| 2026-04-26 15:26 | 19.90513 | -79.02615 | 7987 ft | 194 kts | 255° |
| 2026-04-26 15:26 | 19.90158 | -79.03999 | 7987 ft | 194 kts | 255° |
| 2026-04-26 15:26 | 19.89802 | -79.05385 | 7986 ft | 194 kts | 255° |
| 2026-04-26 15:26 | 19.89447 | -79.06769 | 7987 ft | 194 kts | 255° |
| 2026-04-26 15:27 | 19.89092 | -79.08151 | 7988 ft | 194 kts | 255° |
| 2026-04-26 15:27 | 19.88737 | -79.09535 | 7989 ft | 194 kts | 255° |
| 2026-04-26 15:27 | 19.88386 | -79.10899 | 7987 ft | 194 kts | 255° |
| 2026-04-26 15:27 | 19.88030 | -79.12283 | 7986 ft | 194 kts | 255° |
| 2026-04-26 15:28 | 19.87675 | -79.13666 | 7987 ft | 194 kts | 255° |
| 2026-04-26 15:28 | 19.87320 | -79.15047 | 7987 ft | 194 kts | 255° |
| 2026-04-26 15:28 | 19.86964 | -79.16430 | 7988 ft | 194 kts | 255° |
| 2026-04-26 15:28 | 19.86607 | -79.17814 | 7986 ft | 194 kts | 255° |
| 2026-04-26 15:29 | 19.86251 | -79.19198 | 7987 ft | 194 kts | 255° |
| 2026-04-26 15:29 | 19.85894 | -79.20583 | 7989 ft | 194 kts | 255° |
| 2026-04-26 15:29 | 19.85182 | -79.23347 | 7987 ft | 194 kts | 255° |
| 2026-04-26 15:30 | 19.84469 | -79.26112 | 7987 ft | 194 kts | 255° |
| 2026-04-26 15:30 | 19.84112 | -79.27495 | 7988 ft | 194 kts | 255° |
| 2026-04-26 15:30 | 19.83760 | -79.28860 | 7985 ft | 194 kts | 255° |
| 2026-04-26 15:31 | 19.83402 | -79.30244 | 7986 ft | 194 kts | 255° |
| 2026-04-26 15:31 | 19.82687 | -79.33012 | 7987 ft | 195 kts | 255° |
| 2026-04-26 15:31 | 19.82328 | -79.34403 | 7987 ft | 195 kts | 255° |
| 2026-04-26 15:32 | 19.81732 | -79.36706 | 7986 ft | 195 kts | 255° |
| 2026-04-26 15:32 | 19.81252 | -79.38563 | 7986 ft | 195 kts | 255° |
| 2026-04-26 15:32 | 19.80893 | -79.39950 | 7987 ft | 195 kts | 255° |
| 2026-04-26 15:33 | 19.80534 | -79.41335 | 7986 ft | 195 kts | 255° |
| 2026-04-26 15:33 | 19.80174 | -79.42723 | 7987 ft | 195 kts | 255° |
| 2026-04-26 15:33 | 19.79820 | -79.44091 | 7987 ft | 195 kts | 255° |
| 2026-04-26 15:33 | 19.79460 | -79.45480 | 7986 ft | 195 kts | 255° |
| 2026-04-26 15:34 | 19.79100 | -79.46869 | 7989 ft | 195 kts | 255° |
| 2026-04-26 15:34 | 19.78740 | -79.48257 | 7985 ft | 195 kts | 255° |
| 2026-04-26 15:34 | 19.78380 | -79.49644 | 7987 ft | 195 kts | 255° |
| 2026-04-26 15:34 | 19.78020 | -79.51031 | 7986 ft | 195 kts | 255° |
| 2026-04-26 15:35 | 19.77659 | -79.52420 | 7986 ft | 195 kts | 255° |
| 2026-04-26 15:35 | 19.77299 | -79.53808 | 7986 ft | 195 kts | 255° |
| 2026-04-26 15:35 | 19.76938 | -79.55198 | 7985 ft | 195 kts | 255° |
| 2026-04-26 15:35 | 19.76578 | -79.56585 | 7986 ft | 195 kts | 255° |
| 2026-04-26 15:36 | 19.76217 | -79.57971 | 7985 ft | 195 kts | 255° |
| 2026-04-26 15:36 | 19.75855 | -79.59362 | 7987 ft | 195 kts | 255° |
| 2026-04-26 15:36 | 19.75499 | -79.60732 | 7986 ft | 195 kts | 255° |
| 2026-04-26 15:36 | 19.75137 | -79.62122 | 7988 ft | 195 kts | 255° |
| 2026-04-26 15:37 | 19.74776 | -79.63510 | 7988 ft | 195 kts | 255° |
| 2026-04-26 15:37 | 19.74414 | -79.64897 | 7990 ft | 195 kts | 256° |
| 2026-04-26 15:37 | 19.74052 | -79.66290 | 7989 ft | 195 kts | 256° |
| 2026-04-26 15:37 | 19.73689 | -79.67681 | 7988 ft | 195 kts | 255° |
| 2026-04-26 15:38 | 19.73327 | -79.69069 | 7990 ft | 195 kts | 255° |
| 2026-04-26 15:38 | 19.72964 | -79.70461 | 7989 ft | 195 kts | 255° |
| 2026-04-26 15:38 | 19.72601 | -79.71852 | 7990 ft | 195 kts | 255° |
| 2026-04-26 15:38 | 19.72239 | -79.73242 | 7989 ft | 196 kts | 256° |
| 2026-04-26 15:39 | 19.71875 | -79.74633 | 7990 ft | 196 kts | 255° |
| 2026-04-26 15:39 | 19.71512 | -79.76026 | 7991 ft | 196 kts | 256° |
| 2026-04-26 15:39 | 19.71153 | -79.77399 | 7990 ft | 196 kts | 256° |
| 2026-04-26 15:39 | 19.70908 | -79.78338 | 7991 ft | 196 kts | 256° |
| 2026-04-26 15:40 | 19.70425 | -79.80184 | 7990 ft | 196 kts | 256° |
| 2026-04-26 15:40 | 19.70061 | -79.81576 | 7992 ft | 196 kts | 256° |
| 2026-04-26 15:40 | 19.69697 | -79.82971 | 7993 ft | 196 kts | 255° |
| 2026-04-26 15:40 | 19.69322 | -79.84364 | 7996 ft | 197 kts | 255° |
| 2026-04-26 15:41 | 19.68955 | -79.85776 | 8004 ft | 201 kts | 256° |
| 2026-04-26 15:41 | 19.68598 | -79.87214 | 7998 ft | 202 kts | 256° |
| 2026-04-26 15:41 | 19.68217 | -79.88639 | 7991 ft | 199 kts | 255° |
| 2026-04-26 15:41 | 19.67854 | -79.90034 | 7990 ft | 198 kts | 256° |
| 2026-04-26 15:42 | 19.67493 | -79.91440 | 7991 ft | 197 kts | 256° |
| 2026-04-26 15:42 | 19.67128 | -79.92840 | 7992 ft | 197 kts | 256° |
| 2026-04-26 15:42 | 19.66763 | -79.94238 | 7990 ft | 197 kts | 256° |
| 2026-04-26 15:42 | 19.66399 | -79.95636 | 7992 ft | 197 kts | 256° |
| 2026-04-26 15:43 | 19.66034 | -79.97036 | 7990 ft | 197 kts | 256° |
| 2026-04-26 15:43 | 19.65670 | -79.98435 | 7990 ft | 196 kts | 256° |
| 2026-04-26 15:43 | 19.64942 | -80.01230 | 7990 ft | 197 kts | 256° |
| 2026-04-26 15:44 | 19.64578 | -80.02628 | 7990 ft | 197 kts | 256° |
| 2026-04-26 15:44 | 19.63850 | -80.05422 | 7990 ft | 196 kts | 256° |
| 2026-04-26 15:44 | 19.63485 | -80.06818 | 7990 ft | 196 kts | 256° |
| 2026-04-26 15:45 | 19.62760 | -80.09598 | 7987 ft | 197 kts | 256° |
| 2026-04-26 15:45 | 19.62395 | -80.10997 | 7989 ft | 197 kts | 256° |
| 2026-04-26 15:46 | 19.61663 | -80.13800 | 7989 ft | 197 kts | 256° |
| 2026-04-26 15:46 | 19.61297 | -80.15200 | 7988 ft | 197 kts | 256° |
| 2026-04-26 15:46 | 19.60931 | -80.16600 | 7986 ft | 197 kts | 256° |
| 2026-04-26 15:46 | 19.60689 | -80.17524 | 7986 ft | 197 kts | 256° |
| 2026-04-26 15:47 | 19.60199 | -80.19399 | 7985 ft | 197 kts | 256° |
| 2026-04-26 15:47 | 19.59470 | -80.22182 | 7986 ft | 197 kts | 256° |
| 2026-04-26 15:47 | 19.59103 | -80.23586 | 7987 ft | 197 kts | 256° |
| 2026-04-26 15:48 | 19.58736 | -80.24988 | 7985 ft | 197 kts | 256° |
| 2026-04-26 15:48 | 19.58368 | -80.26390 | 7984 ft | 197 kts | 256° |
| 2026-04-26 15:48 | 19.58001 | -80.27790 | 7983 ft | 197 kts | 256° |
| 2026-04-26 15:48 | 19.57634 | -80.29192 | 7986 ft | 197 kts | 256° |
| 2026-04-26 15:49 | 19.57266 | -80.30595 | 7983 ft | 197 kts | 256° |
| 2026-04-26 15:49 | 19.56897 | -80.31999 | 7984 ft | 197 kts | 256° |
| 2026-04-26 15:49 | 19.56534 | -80.33383 | 7986 ft | 198 kts | 256° |
| 2026-04-26 15:49 | 19.56165 | -80.34788 | 7985 ft | 198 kts | 256° |
| 2026-04-26 15:50 | 19.55796 | -80.36194 | 7983 ft | 198 kts | 256° |
| 2026-04-26 15:50 | 19.55427 | -80.37599 | 7985 ft | 198 kts | 256° |
| 2026-04-26 15:50 | 19.55056 | -80.39009 | 7984 ft | 198 kts | 256° |
| 2026-04-26 15:50 | 19.54687 | -80.40412 | 7984 ft | 198 kts | 256° |
| 2026-04-26 15:51 | 19.54318 | -80.41815 | 7984 ft | 198 kts | 256° |
| 2026-04-26 15:51 | 19.53949 | -80.43218 | 7985 ft | 198 kts | 256° |
| 2026-04-26 15:51 | 19.53579 | -80.44624 | 7982 ft | 198 kts | 256° |
| 2026-04-26 15:51 | 19.53210 | -80.46026 | 7984 ft | 198 kts | 256° |
| 2026-04-26 15:52 | 19.52840 | -80.47430 | 7982 ft | 198 kts | 256° |
| 2026-04-26 15:52 | 19.52471 | -80.48832 | 7986 ft | 198 kts | 256° |
| 2026-04-26 15:52 | 19.52100 | -80.50238 | 7987 ft | 198 kts | 256° |
| 2026-04-26 15:52 | 19.51855 | -80.51169 | 7988 ft | 198 kts | 256° |
| 2026-04-26 15:53 | 19.51364 | -80.53031 | 7987 ft | 198 kts | 256° |
| 2026-04-26 15:53 | 19.50993 | -80.54437 | 7984 ft | 198 kts | 256° |
| 2026-04-26 15:53 | 19.50622 | -80.55841 | 7986 ft | 198 kts | 256° |
| 2026-04-26 15:53 | 19.50250 | -80.57250 | 7985 ft | 198 kts | 256° |
| 2026-04-26 15:54 | 19.49878 | -80.58660 | 7985 ft | 198 kts | 256° |
| 2026-04-26 15:54 | 19.49507 | -80.60066 | 7984 ft | 198 kts | 256° |
| 2026-04-26 15:54 | 19.49135 | -80.61472 | 7986 ft | 198 kts | 256° |
| 2026-04-26 15:54 | 19.48763 | -80.62879 | 7983 ft | 198 kts | 256° |
| 2026-04-26 15:55 | 19.48391 | -80.64286 | 7985 ft | 198 kts | 256° |
| 2026-04-26 15:55 | 19.48019 | -80.65692 | 7984 ft | 198 kts | 256° |
| 2026-04-26 15:55 | 19.47651 | -80.67084 | 7984 ft | 198 kts | 256° |
| 2026-04-26 15:55 | 19.47278 | -80.68492 | 7983 ft | 198 kts | 256° |
| 2026-04-26 15:56 | 19.46905 | -80.69900 | 7985 ft | 198 kts | 256° |
| 2026-04-26 15:56 | 19.46533 | -80.71306 | 7984 ft | 198 kts | 256° |
| 2026-04-26 15:56 | 19.46161 | -80.72711 | 7983 ft | 198 kts | 256° |
| 2026-04-26 15:56 | 19.45787 | -80.74119 | 7985 ft | 198 kts | 256° |
| 2026-04-26 15:57 | 19.45415 | -80.75524 | 7985 ft | 198 kts | 256° |
| 2026-04-26 15:57 | 19.45041 | -80.76932 | 7985 ft | 198 kts | 256° |
| 2026-04-26 15:57 | 19.44667 | -80.78342 | 7986 ft | 198 kts | 256° |
| 2026-04-26 15:57 | 19.44420 | -80.79275 | 7984 ft | 199 kts | 256° |
| 2026-04-26 15:58 | 19.43919 | -80.81161 | 7985 ft | 199 kts | 256° |
| 2026-04-26 15:58 | 19.43544 | -80.82573 | 7985 ft | 199 kts | 256° |
| 2026-04-26 15:58 | 19.43169 | -80.83984 | 7982 ft | 199 kts | 256° |
| 2026-04-26 15:58 | 19.42799 | -80.85377 | 7983 ft | 199 kts | 256° |
| 2026-04-26 15:59 | 19.42424 | -80.86788 | 7984 ft | 199 kts | 256° |
| 2026-04-26 15:59 | 19.42048 | -80.88202 | 7981 ft | 199 kts | 256° |
| 2026-04-26 15:59 | 19.41673 | -80.89611 | 7982 ft | 199 kts | 256° |
| 2026-04-26 15:59 | 19.41298 | -80.91020 | 7984 ft | 199 kts | 256° |
| 2026-04-26 16:00 | 19.40922 | -80.92430 | 7985 ft | 199 kts | 256° |
| 2026-04-26 16:00 | 19.40547 | -80.93840 | 7982 ft | 199 kts | 256° |
| 2026-04-26 16:00 | 19.40171 | -80.95252 | 7982 ft | 199 kts | 256° |
| 2026-04-26 16:00 | 19.39795 | -80.96663 | 7984 ft | 199 kts | 256° |
| 2026-04-26 16:01 | 19.39418 | -80.98075 | 7984 ft | 199 kts | 256° |
| 2026-04-26 16:01 | 19.39042 | -80.99486 | 7984 ft | 199 kts | 256° |
| 2026-04-26 16:01 | 19.38671 | -81.00882 | 7980 ft | 199 kts | 256° |
| 2026-04-26 16:01 | 19.38322 | -81.02296 | 7986 ft | 198 kts | 263° |
| 2026-04-26 16:02 | 19.38255 | -81.03745 | 7986 ft | 197 kts | 272° |
| 2026-04-26 16:02 | 19.38251 | -81.05195 | 7985 ft | 197 kts | 272° |
| 2026-04-26 16:02 | 19.38245 | -81.06649 | 7985 ft | 197 kts | 272° |
| 2026-04-26 16:02 | 19.38243 | -81.07140 | 7984 ft | 197 kts | 272° |
| 2026-04-26 16:03 | 19.38235 | -81.09486 | 7981 ft | 198 kts | 272° |
| 2026-04-26 16:03 | 19.38230 | -81.10938 | 7995 ft | 197 kts | 272° |
| 2026-04-26 16:03 | 19.38227 | -81.11906 | 7992 ft | 198 kts | 272° |
| 2026-04-26 16:03 | 19.38221 | -81.13365 | 7992 ft | 198 kts | 272° |
| 2026-04-26 16:04 | 19.38214 | -81.14822 | 7993 ft | 198 kts | 272° |
| 2026-04-26 16:04 | 19.38209 | -81.16287 | 7994 ft | 198 kts | 272° |
| 2026-04-26 16:04 | 19.38206 | -81.17744 | 7997 ft | 198 kts | 272° |
| 2026-04-26 16:04 | 19.38202 | -81.19202 | 7986 ft | 198 kts | 272° |
| 2026-04-26 16:05 | 19.38200 | -81.20673 | 7746 ft | 205 kts | 272° |
| 2026-04-26 16:05 | 19.38208 | -81.22201 | 7508 ft | 208 kts | 272° |
| 2026-04-26 16:05 | 19.38223 | -81.23737 | 7271 ft | 209 kts | 272° |
| 2026-04-26 16:05 | 19.38239 | -81.25247 | 7030 ft | 202 kts | 272° |
| 2026-04-26 16:06 | 19.38256 | -81.26719 | 6775 ft | 198 kts | 272° |
| 2026-04-26 16:06 | 19.38375 | -81.28160 | 6546 ft | 196 kts | 278° |
| 2026-04-26 16:06 | 19.38574 | -81.29579 | 6306 ft | 194 kts | 279° |
| 2026-04-26 16:06 | 19.38783 | -81.30991 | 6058 ft | 193 kts | 279° |
| 2026-04-26 16:07 | 19.38994 | -81.32397 | 5813 ft | 193 kts | 279° |
| 2026-04-26 16:07 | 19.39206 | -81.33800 | 5567 ft | 193 kts | 279° |
| 2026-04-26 16:07 | 19.39420 | -81.35200 | 5325 ft | 192 kts | 279° |
| 2026-04-26 16:07 | 19.39635 | -81.36596 | 5083 ft | 192 kts | 279° |
| 2026-04-26 16:08 | 19.39853 | -81.37992 | 4845 ft | 192 kts | 279° |
| 2026-04-26 16:08 | 19.40071 | -81.39380 | 4605 ft | 190 kts | 279° |
| 2026-04-26 16:08 | 19.40289 | -81.40756 | 4354 ft | 189 kts | 279° |
| 2026-04-26 16:08 | 19.40508 | -81.42132 | 4110 ft | 189 kts | 279° |
| 2026-04-26 16:09 | 19.40727 | -81.43503 | 3868 ft | 189 kts | 279° |
| 2026-04-26 16:09 | 19.40943 | -81.44876 | 3626 ft | 189 kts | 276° |
| 2026-04-26 16:09 | 19.40710 | -81.46193 | 3391 ft | 186 kts | 237° |
| 2026-04-26 16:09 | 19.39711 | -81.47022 | 3158 ft | 182 kts | 195° |
| 2026-04-26 16:10 | 19.38466 | -81.47010 | 2917 ft | 179 kts | 168° |
| 2026-04-26 16:10 | 19.37254 | -81.46774 | 2671 ft | 179 kts | 168° |
| 2026-04-26 16:10 | 19.36025 | -81.46539 | 2434 ft | 179 kts | 168° |
| 2026-04-26 16:10 | 19.34797 | -81.46311 | 2187 ft | 179 kts | 169° |
| 2026-04-26 16:11 | 19.33570 | -81.46084 | 1990 ft | 176 kts | 169° |
| 2026-04-26 16:11 | 19.32406 | -81.45862 | 1985 ft | 166 kts | 168° |
| 2026-04-26 16:11 | 19.31290 | -81.45649 | 1982 ft | 161 kts | 168° |
| 2026-04-26 16:11 | 19.30188 | -81.45435 | 2024 ft | 160 kts | 167° |
| 2026-04-26 16:12 | 19.29058 | -81.45182 | 1805 ft | 170 kts | 166° |
| 2026-04-26 16:12 | 19.27931 | -81.44841 | 1586 ft | 169 kts | 154° |
| 2026-04-26 16:12 | 19.26635 | -81.43007 | 1216 ft | 157 kts | 93° |
| 2026-04-26 16:13 | 19.26877 | -81.41915 | 940 ft | 154 kts | 62° |
| 2026-04-26 16:13 | 19.27470 | -81.41007 | 814 ft | 147 kts | 56° |
| 2026-04-26 16:13 | 19.27996 | -81.40130 | 606 ft | 136 kts | 64° |
| 2026-04-26 16:13 | 19.28345 | -81.39333 | 480 ft | 105 kts | 71° |
| 2026-04-26 16:14 | 19.28572 | -81.38650 | 384 ft | 96 kts | 78° |
| 2026-04-26 16:14 | 19.28753 | -81.37983 | 278 ft | 94 kts | 77° |
| 2026-04-26 16:14 | 19.29071 | -81.36648 | 23 ft | 83 kts | 80° |
| 2026-04-26 16:15 | 19.29180 | -81.36163 | 20 ft | 51 kts | 83° |
| 2026-04-26 16:15 | 19.29265 | -81.35841 | 19 ft | 42 kts | 72° |
| 2026-04-26 16:15 | 19.29337 | -81.35601 | 19 ft | 19 kts | 63° |
| 2026-04-26 16:16 | 19.29412 | -81.35580 | 18 ft | 0 kts | 340° |
| 2026-04-26 16:16 | 19.29436 | -81.35588 | 18 ft | 8 kts | 342° |
| 2026-04-26 16:17 | 19.29497 | -81.35562 | 18 ft | 13 kts | 75° |
| 2026-04-26 16:17 | 19.29518 | -81.35471 | 19 ft | 9 kts | 75° |
| 2026-04-26 16:17 | 19.29555 | -81.35439 | 19 ft | 7 kts | 341° |
| 2026-04-26 16:17 | 19.29610 | -81.35455 | 19 ft | 7 kts | 344° |
| 2026-04-26 16:18 | 19.29630 | -81.35461 | 19 ft | 1 kts | 344° |